sensor_id;sensor_type;location;lat;lon;timestamp;P1;durP1;ratioP1;P2;durP2;ratioP2
5587;SDS011;2816;49.778;9.986;2023-05-10T00:01:15;2.33;;;2.13;;
5587;SDS011;2816;49.778;9.986;2023-05-10T00:03:42;2.60;;;1.83;;
5587;SDS011;2816;49.778;9.986;2023-05-10T00:06:09;3.50;;;1.90;;
5587;SDS011;2816;49.778;9.986;2023-05-10T00:08:36;3.93;;;2.30;;
5587;SDS011;2816;49.778;9.986;2023-05-10T00:11:03;4.20;;;2.40;;
5587;SDS011;2816;49.778;9.986;2023-05-10T00:13:30;6.00;;;1.80;;
5587;SDS011;2816;49.778;9.986;2023-05-10T00:15:57;2.20;;;2.00;;
5587;SDS011;2816;49.778;9.986;2023-05-10T00:18:25;2.30;;;1.70;;
5587;SDS011;2816;49.778;9.986;2023-05-10T00:20:52;1.97;;;1.87;;
5587;SDS011;2816;49.778;9.986;2023-05-10T00:23:19;3.67;;;2.67;;
5587;SDS011;2816;49.778;9.986;2023-05-10T00:25:47;6.90;;;2.80;;
5587;SDS011;2816;49.778;9.986;2023-05-10T00:28:14;2.57;;;2.00;;
5587;SDS011;2816;49.778;9.986;2023-05-10T00:30:40;2.70;;;2.40;;
5587;SDS011;2816;49.778;9.986;2023-05-10T00:33:07;2.20;;;2.07;;
5587;SDS011;2816;49.778;9.986;2023-05-10T00:35:36;2.87;;;2.33;;
5587;SDS011;2816;49.778;9.986;2023-05-10T00:38:03;2.70;;;2.50;;
5587;SDS011;2816;49.778;9.986;2023-05-10T00:40:30;3.83;;;2.93;;
5587;SDS011;2816;49.778;9.986;2023-05-10T00:42:57;2.27;;;1.80;;
5587;SDS011;2816;49.778;9.986;2023-05-10T00:45:24;3.27;;;2.83;;
5587;SDS011;2816;49.778;9.986;2023-05-10T00:47:52;4.60;;;2.50;;
5587;SDS011;2816;49.778;9.986;2023-05-10T00:50:20;1.87;;;1.77;;
5587;SDS011;2816;49.778;9.986;2023-05-10T00:52:49;2.67;;;2.27;;
5587;SDS011;2816;49.778;9.986;2023-05-10T00:55:16;2.33;;;1.90;;
5587;SDS011;2816;49.778;9.986;2023-05-10T00:57:44;3.10;;;1.60;;
5587;SDS011;2816;49.778;9.986;2023-05-10T01:00:12;2.30;;;2.10;;
5587;SDS011;2816;49.778;9.986;2023-05-10T01:02:43;3.30;;;2.30;;
5587;SDS011;2816;49.778;9.986;2023-05-10T01:05:11;2.60;;;2.40;;
5587;SDS011;2816;49.778;9.986;2023-05-10T01:07:38;2.10;;;1.90;;
5587;SDS011;2816;49.778;9.986;2023-05-10T01:10:07;2.93;;;2.23;;
5587;SDS011;2816;49.778;9.986;2023-05-10T01:12:36;1.93;;;1.83;;
5587;SDS011;2816;49.778;9.986;2023-05-10T01:15:05;1.90;;;1.80;;
5587;SDS011;2816;49.778;9.986;2023-05-10T01:17:34;1.70;;;1.60;;
5587;SDS011;2816;49.778;9.986;2023-05-10T01:20:02;1.87;;;1.77;;
5587;SDS011;2816;49.778;9.986;2023-05-10T01:22:34;2.80;;;1.70;;
5587;SDS011;2816;49.778;9.986;2023-05-10T01:25:24;1.70;;;1.60;;
5587;SDS011;2816;49.778;9.986;2023-05-10T01:28:13;2.50;;;1.70;;
5587;SDS011;2816;49.778;9.986;2023-05-10T01:33:58;1.80;;;1.70;;
5587;SDS011;2816;49.778;9.986;2023-05-10T01:36:29;2.30;;;1.70;;
5587;SDS011;2816;49.778;9.986;2023-05-10T01:39:00;1.97;;;1.23;;
5587;SDS011;2816;49.778;9.986;2023-05-10T01:41:36;5.23;;;1.50;;
5587;SDS011;2816;49.778;9.986;2023-05-10T01:44:09;2.03;;;1.93;;
5587;SDS011;2816;49.778;9.986;2023-05-10T01:46:44;1.53;;;1.43;;
5587;SDS011;2816;49.778;9.986;2023-05-10T01:49:19;2.17;;;1.63;;
5587;SDS011;2816;49.778;9.986;2023-05-10T01:51:50;2.07;;;1.50;;
5587;SDS011;2816;49.778;9.986;2023-05-10T01:54:19;1.70;;;1.60;;
5587;SDS011;2816;49.778;9.986;2023-05-10T01:56:50;2.13;;;1.40;;
5587;SDS011;2816;49.778;9.986;2023-05-10T01:59:22;1.40;;;1.30;;
5587;SDS011;2816;49.778;9.986;2023-05-10T02:01:54;1.10;;;1.10;;
5587;SDS011;2816;49.778;9.986;2023-05-10T02:04:26;3.10;;;1.40;;
5587;SDS011;2816;49.778;9.986;2023-05-10T02:06:54;1.20;;;1.10;;
5587;SDS011;2816;49.778;9.986;2023-05-10T02:09:22;1.27;;;1.17;;
5587;SDS011;2816;49.778;9.986;2023-05-10T02:11:51;1.73;;;1.50;;
5587;SDS011;2816;49.778;9.986;2023-05-10T02:14:20;2.00;;;1.10;;
5587;SDS011;2816;49.778;9.986;2023-05-10T02:16:49;1.20;;;1.10;;
5587;SDS011;2816;49.778;9.986;2023-05-10T02:19:17;3.70;;;1.40;;
5587;SDS011;2816;49.778;9.986;2023-05-10T02:21:47;2.20;;;1.40;;
5587;SDS011;2816;49.778;9.986;2023-05-10T02:24:17;2.30;;;1.47;;
5587;SDS011;2816;49.778;9.986;2023-05-10T02:26:45;1.17;;;1.00;;
5587;SDS011;2816;49.778;9.986;2023-05-10T02:29:15;1.10;;;1.10;;
5587;SDS011;2816;49.778;9.986;2023-05-10T02:31:44;1.13;;;1.00;;
5587;SDS011;2816;49.778;9.986;2023-05-10T02:34:12;1.10;;;1.00;;
5587;SDS011;2816;49.778;9.986;2023-05-10T02:36:40;1.00;;;1.00;;
5587;SDS011;2816;49.778;9.986;2023-05-10T02:39:09;2.50;;;1.10;;
5587;SDS011;2816;49.778;9.986;2023-05-10T02:41:38;1.00;;;1.00;;
5587;SDS011;2816;49.778;9.986;2023-05-10T02:44:07;0.90;;;0.90;;
5587;SDS011;2816;49.778;9.986;2023-05-10T02:46:35;0.90;;;0.90;;
5587;SDS011;2816;49.778;9.986;2023-05-10T02:49:02;1.13;;;1.13;;
5587;SDS011;2816;49.778;9.986;2023-05-10T02:51:30;0.90;;;0.90;;
5587;SDS011;2816;49.778;9.986;2023-05-10T02:53:59;0.97;;;0.87;;
5587;SDS011;2816;49.778;9.986;2023-05-10T02:56:33;1.93;;;1.00;;
5587;SDS011;2816;49.778;9.986;2023-05-10T02:59:02;0.90;;;0.90;;
5587;SDS011;2816;49.778;9.986;2023-05-10T03:01:29;1.20;;;0.90;;
5587;SDS011;2816;49.778;9.986;2023-05-10T03:03:56;1.10;;;1.00;;
5587;SDS011;2816;49.778;9.986;2023-05-10T03:06:23;1.40;;;0.90;;
5587;SDS011;2816;49.778;9.986;2023-05-10T03:08:49;1.50;;;1.20;;
5587;SDS011;2816;49.778;9.986;2023-05-10T03:11:22;2.93;;;0.90;;
5587;SDS011;2816;49.778;9.986;2023-05-10T03:14:04;1.43;;;0.97;;
5587;SDS011;2816;49.778;9.986;2023-05-10T03:16:40;0.80;;;0.80;;
5587;SDS011;2816;49.778;9.986;2023-05-10T03:19:12;1.03;;;0.93;;
5587;SDS011;2816;49.778;9.986;2023-05-10T03:21:44;0.90;;;0.90;;
5587;SDS011;2816;49.778;9.986;2023-05-10T03:24:17;0.90;;;0.90;;
5587;SDS011;2816;49.778;9.986;2023-05-10T03:26:46;3.63;;;1.00;;
5587;SDS011;2816;49.778;9.986;2023-05-10T03:29:16;0.97;;;0.90;;
5587;SDS011;2816;49.778;9.986;2023-05-10T03:31:44;2.80;;;0.93;;
5587;SDS011;2816;49.778;9.986;2023-05-10T03:34:11;2.10;;;1.00;;
5587;SDS011;2816;49.778;9.986;2023-05-10T03:36:38;0.97;;;0.97;;
5587;SDS011;2816;49.778;9.986;2023-05-10T03:39:05;1.40;;;1.03;;
5587;SDS011;2816;49.778;9.986;2023-05-10T03:41:32;0.90;;;0.90;;
5587;SDS011;2816;49.778;9.986;2023-05-10T03:43:59;1.40;;;1.00;;
5587;SDS011;2816;49.778;9.986;2023-05-10T03:46:27;0.93;;;0.80;;
5587;SDS011;2816;49.778;9.986;2023-05-10T03:48:55;1.57;;;1.10;;
5587;SDS011;2816;49.778;9.986;2023-05-10T03:51:21;4.73;;;1.00;;
5587;SDS011;2816;49.778;9.986;2023-05-10T03:53:50;1.63;;;1.00;;
5587;SDS011;2816;49.778;9.986;2023-05-10T03:56:17;1.43;;;1.00;;
5587;SDS011;2816;49.778;9.986;2023-05-10T03:58:44;1.00;;;0.90;;
5587;SDS011;2816;49.778;9.986;2023-05-10T04:01:11;0.90;;;0.90;;
5587;SDS011;2816;49.778;9.986;2023-05-10T04:03:39;1.10;;;1.00;;
5587;SDS011;2816;49.778;9.986;2023-05-10T04:06:06;2.60;;;1.10;;
5587;SDS011;2816;49.778;9.986;2023-05-10T04:08:36;1.57;;;1.47;;
5587;SDS011;2816;49.778;9.986;2023-05-10T04:11:06;2.50;;;1.10;;
5587;SDS011;2816;49.778;9.986;2023-05-10T04:13:33;1.53;;;0.90;;
5587;SDS011;2816;49.778;9.986;2023-05-10T04:16:00;1.20;;;1.10;;
5587;SDS011;2816;49.778;9.986;2023-05-10T04:18:27;1.20;;;1.10;;
5587;SDS011;2816;49.778;9.986;2023-05-10T04:20:55;1.20;;;1.20;;
5587;SDS011;2816;49.778;9.986;2023-05-10T04:23:22;2.40;;;1.00;;
5587;SDS011;2816;49.778;9.986;2023-05-10T04:25:49;0.90;;;0.90;;
5587;SDS011;2816;49.778;9.986;2023-05-10T04:28:16;1.10;;;1.00;;
5587;SDS011;2816;49.778;9.986;2023-05-10T04:30:43;1.20;;;1.10;;
5587;SDS011;2816;49.778;9.986;2023-05-10T04:33:10;1.00;;;1.00;;
5587;SDS011;2816;49.778;9.986;2023-05-10T04:35:37;0.90;;;0.90;;
5587;SDS011;2816;49.778;9.986;2023-05-10T04:38:06;1.37;;;1.00;;
5587;SDS011;2816;49.778;9.986;2023-05-10T04:40:33;3.53;;;1.20;;
5587;SDS011;2816;49.778;9.986;2023-05-10T04:43:00;1.10;;;1.10;;
5587;SDS011;2816;49.778;9.986;2023-05-10T04:45:27;1.20;;;1.10;;
5587;SDS011;2816;49.778;9.986;2023-05-10T04:47:54;1.90;;;1.20;;
5587;SDS011;2816;49.778;9.986;2023-05-10T04:50:21;2.03;;;1.10;;
5587;SDS011;2816;49.778;9.986;2023-05-10T04:52:48;1.00;;;1.00;;
5587;SDS011;2816;49.778;9.986;2023-05-10T04:55:16;1.20;;;1.10;;
5587;SDS011;2816;49.778;9.986;2023-05-10T04:57:43;1.00;;;0.90;;
5587;SDS011;2816;49.778;9.986;2023-05-10T05:00:11;3.03;;;1.13;;
5587;SDS011;2816;49.778;9.986;2023-05-10T05:02:41;1.40;;;1.10;;
5587;SDS011;2816;49.778;9.986;2023-05-10T05:05:08;1.00;;;1.00;;
5587;SDS011;2816;49.778;9.986;2023-05-10T05:07:35;1.10;;;1.00;;
5587;SDS011;2816;49.778;9.986;2023-05-10T05:10:03;1.40;;;1.30;;
5587;SDS011;2816;49.778;9.986;2023-05-10T05:12:32;3.20;;;0.93;;
5587;SDS011;2816;49.778;9.986;2023-05-10T05:14:59;1.23;;;1.10;;
5587;SDS011;2816;49.778;9.986;2023-05-10T05:17:26;2.37;;;1.10;;
5587;SDS011;2816;49.778;9.986;2023-05-10T05:19:53;1.23;;;1.00;;
5587;SDS011;2816;49.778;9.986;2023-05-10T05:22:20;1.20;;;1.20;;
5587;SDS011;2816;49.778;9.986;2023-05-10T05:24:52;1.00;;;0.90;;
5587;SDS011;2816;49.778;9.986;2023-05-10T05:27:19;1.20;;;1.10;;
5587;SDS011;2816;49.778;9.986;2023-05-10T05:29:50;0.93;;;0.93;;
5587;SDS011;2816;49.778;9.986;2023-05-10T05:32:18;1.23;;;1.13;;
5587;SDS011;2816;49.778;9.986;2023-05-10T05:34:45;1.93;;;1.30;;
5587;SDS011;2816;49.778;9.986;2023-05-10T05:37:13;1.40;;;1.20;;
5587;SDS011;2816;49.778;9.986;2023-05-10T05:39:40;3.43;;;1.50;;
5587;SDS011;2816;49.778;9.986;2023-05-10T05:42:07;2.37;;;1.40;;
5587;SDS011;2816;49.778;9.986;2023-05-10T05:44:34;2.83;;;1.67;;
5587;SDS011;2816;49.778;9.986;2023-05-10T05:47:03;1.40;;;1.30;;
5587;SDS011;2816;49.778;9.986;2023-05-10T05:49:30;2.13;;;1.30;;
5587;SDS011;2816;49.778;9.986;2023-05-10T05:51:58;1.77;;;1.37;;
5587;SDS011;2816;49.778;9.986;2023-05-10T05:54:26;2.40;;;1.20;;
5587;SDS011;2816;49.778;9.986;2023-05-10T05:56:53;1.10;;;1.00;;
5587;SDS011;2816;49.778;9.986;2023-05-10T05:59:21;2.30;;;1.20;;
5587;SDS011;2816;49.778;9.986;2023-05-10T06:01:48;1.33;;;1.23;;
5587;SDS011;2816;49.778;9.986;2023-05-10T06:04:17;3.80;;;1.57;;
5587;SDS011;2816;49.778;9.986;2023-05-10T06:06:44;3.67;;;1.10;;
5587;SDS011;2816;49.778;9.986;2023-05-10T06:09:11;1.87;;;1.67;;
5587;SDS011;2816;49.778;9.986;2023-05-10T06:11:38;1.37;;;1.27;;
5587;SDS011;2816;49.778;9.986;2023-05-10T06:14:05;7.53;;;1.30;;
5587;SDS011;2816;49.778;9.986;2023-05-10T06:16:33;1.67;;;1.30;;
5587;SDS011;2816;49.778;9.986;2023-05-10T06:19:00;2.60;;;1.40;;
5587;SDS011;2816;49.778;9.986;2023-05-10T06:21:28;11.57;;;1.73;;
5587;SDS011;2816;49.778;9.986;2023-05-10T06:23:55;1.30;;;1.30;;
5587;SDS011;2816;49.778;9.986;2023-05-10T06:26:22;1.20;;;1.10;;
5587;SDS011;2816;49.778;9.986;2023-05-10T06:28:49;1.37;;;1.30;;
5587;SDS011;2816;49.778;9.986;2023-05-10T06:31:16;1.50;;;1.40;;
5587;SDS011;2816;49.778;9.986;2023-05-10T06:33:43;2.30;;;1.50;;
5587;SDS011;2816;49.778;9.986;2023-05-10T06:36:10;3.10;;;1.47;;
5587;SDS011;2816;49.778;9.986;2023-05-10T06:38:39;2.50;;;1.40;;
5587;SDS011;2816;49.778;9.986;2023-05-10T06:41:06;5.70;;;1.60;;
5587;SDS011;2816;49.778;9.986;2023-05-10T06:43:34;3.10;;;1.30;;
5587;SDS011;2816;49.778;9.986;2023-05-10T06:46:04;7.80;;;1.63;;
5587;SDS011;2816;49.778;9.986;2023-05-10T06:48:32;1.93;;;1.20;;
5587;SDS011;2816;49.778;9.986;2023-05-10T06:50:59;1.20;;;1.10;;
5587;SDS011;2816;49.778;9.986;2023-05-10T06:53:26;1.43;;;1.33;;
5587;SDS011;2816;49.778;9.986;2023-05-10T06:55:55;1.30;;;1.20;;
5587;SDS011;2816;49.778;9.986;2023-05-10T06:58:22;1.73;;;1.63;;
5587;SDS011;2816;49.778;9.986;2023-05-10T07:00:49;6.73;;;1.40;;
5587;SDS011;2816;49.778;9.986;2023-05-10T07:03:16;2.37;;;1.30;;
5587;SDS011;2816;49.778;9.986;2023-05-10T07:05:43;2.50;;;1.53;;
5587;SDS011;2816;49.778;9.986;2023-05-10T07:08:09;1.97;;;1.77;;
5587;SDS011;2816;49.778;9.986;2023-05-10T07:10:36;2.20;;;1.70;;
5587;SDS011;2816;49.778;9.986;2023-05-10T07:13:05;1.73;;;1.63;;
5587;SDS011;2816;49.778;9.986;2023-05-10T07:15:31;1.60;;;1.50;;
5587;SDS011;2816;49.778;9.986;2023-05-10T07:17:58;1.50;;;1.40;;
5587;SDS011;2816;49.778;9.986;2023-05-10T07:20:25;1.60;;;1.50;;
5587;SDS011;2816;49.778;9.986;2023-05-10T07:22:52;4.30;;;1.40;;
5587;SDS011;2816;49.778;9.986;2023-05-10T07:25:19;2.30;;;1.70;;
5587;SDS011;2816;49.778;9.986;2023-05-10T07:27:46;3.37;;;1.53;;
5587;SDS011;2816;49.778;9.986;2023-05-10T07:30:15;1.77;;;1.67;;
5587;SDS011;2816;49.778;9.986;2023-05-10T07:32:41;3.10;;;1.90;;
5587;SDS011;2816;49.778;9.986;2023-05-10T07:35:08;1.90;;;1.40;;
5587;SDS011;2816;49.778;9.986;2023-05-10T07:37:35;5.90;;;2.00;;
5587;SDS011;2816;49.778;9.986;2023-05-10T07:40:02;3.17;;;1.60;;
5587;SDS011;2816;49.778;9.986;2023-05-10T07:42:29;3.87;;;2.00;;
5587;SDS011;2816;49.778;9.986;2023-05-10T07:44:56;3.13;;;1.77;;
5587;SDS011;2816;49.778;9.986;2023-05-10T07:47:25;9.13;;;1.90;;
5587;SDS011;2816;49.778;9.986;2023-05-10T07:49:52;1.63;;;1.40;;
5587;SDS011;2816;49.778;9.986;2023-05-10T07:52:19;1.90;;;1.50;;
5587;SDS011;2816;49.778;9.986;2023-05-10T07:54:46;2.07;;;1.80;;
5587;SDS011;2816;49.778;9.986;2023-05-10T07:57:13;3.90;;;1.70;;
5587;SDS011;2816;49.778;9.986;2023-05-10T07:59:42;2.30;;;1.53;;
5587;SDS011;2816;49.778;9.986;2023-05-10T08:02:10;3.77;;;1.80;;
5587;SDS011;2816;49.778;9.986;2023-05-10T08:04:38;4.00;;;1.60;;
5587;SDS011;2816;49.778;9.986;2023-05-10T08:07:05;7.90;;;1.97;;
5587;SDS011;2816;49.778;9.986;2023-05-10T08:09:32;3.00;;;2.00;;
5587;SDS011;2816;49.778;9.986;2023-05-10T08:11:59;2.33;;;2.10;;
5587;SDS011;2816;49.778;9.986;2023-05-10T08:14:27;1.93;;;1.80;;
5587;SDS011;2816;49.778;9.986;2023-05-10T08:16:55;2.03;;;1.50;;
5587;SDS011;2816;49.778;9.986;2023-05-10T08:19:22;4.60;;;1.50;;
5587;SDS011;2816;49.778;9.986;2023-05-10T08:21:50;3.00;;;1.73;;
5587;SDS011;2816;49.778;9.986;2023-05-10T08:24:20;7.93;;;1.97;;
5587;SDS011;2816;49.778;9.986;2023-05-10T08:26:47;3.50;;;1.70;;
5587;SDS011;2816;49.778;9.986;2023-05-10T08:29:14;2.03;;;1.80;;
5587;SDS011;2816;49.778;9.986;2023-05-10T08:31:41;6.50;;;2.37;;
5587;SDS011;2816;49.778;9.986;2023-05-10T08:34:08;4.13;;;2.50;;
5587;SDS011;2816;49.778;9.986;2023-05-10T08:36:35;3.83;;;1.70;;
5587;SDS011;2816;49.778;9.986;2023-05-10T08:39:03;3.10;;;1.77;;
5587;SDS011;2816;49.778;9.986;2023-05-10T08:41:30;2.13;;;1.70;;
5587;SDS011;2816;49.778;9.986;2023-05-10T08:44:01;3.20;;;1.60;;
5587;SDS011;2816;49.778;9.986;2023-05-10T08:46:30;1.70;;;1.60;;
5587;SDS011;2816;49.778;9.986;2023-05-10T08:48:59;2.67;;;1.80;;
5587;SDS011;2816;49.778;9.986;2023-05-10T08:51:29;4.30;;;1.93;;
5587;SDS011;2816;49.778;9.986;2023-05-10T08:54:03;5.10;;;2.00;;
5587;SDS011;2816;49.778;9.986;2023-05-10T08:56:30;4.70;;;1.70;;
5587;SDS011;2816;49.778;9.986;2023-05-10T08:58:57;2.93;;;1.70;;
5587;SDS011;2816;49.778;9.986;2023-05-10T09:01:24;4.10;;;1.57;;
5587;SDS011;2816;49.778;9.986;2023-05-10T09:03:52;2.10;;;1.70;;
5587;SDS011;2816;49.778;9.986;2023-05-10T09:06:20;4.57;;;1.83;;
5587;SDS011;2816;49.778;9.986;2023-05-10T09:08:47;6.60;;;1.57;;
5587;SDS011;2816;49.778;9.986;2023-05-10T09:11:16;2.90;;;1.90;;
5587;SDS011;2816;49.778;9.986;2023-05-10T09:13:43;3.00;;;1.50;;
5587;SDS011;2816;49.778;9.986;2023-05-10T09:16:11;3.73;;;2.13;;
5587;SDS011;2816;49.778;9.986;2023-05-10T09:18:38;2.87;;;1.60;;
5587;SDS011;2816;49.778;9.986;2023-05-10T09:21:05;6.43;;;2.63;;
5587;SDS011;2816;49.778;9.986;2023-05-10T09:23:32;4.60;;;1.73;;
5587;SDS011;2816;49.778;9.986;2023-05-10T09:26:01;5.80;;;1.93;;
5587;SDS011;2816;49.778;9.986;2023-05-10T09:28:32;2.10;;;1.80;;
5587;SDS011;2816;49.778;9.986;2023-05-10T09:30:59;3.20;;;1.70;;
5587;SDS011;2816;49.778;9.986;2023-05-10T09:33:26;2.30;;;1.70;;
5587;SDS011;2816;49.778;9.986;2023-05-10T09:35:53;2.13;;;1.70;;
5587;SDS011;2816;49.778;9.986;2023-05-10T09:38:20;5.33;;;1.80;;
5587;SDS011;2816;49.778;9.986;2023-05-10T09:40:52;6.10;;;1.80;;
5587;SDS011;2816;49.778;9.986;2023-05-10T09:43:20;4.73;;;1.70;;
5587;SDS011;2816;49.778;9.986;2023-05-10T09:45:49;5.47;;;1.73;;
5587;SDS011;2816;49.778;9.986;2023-05-10T09:48:16;3.50;;;1.80;;
5587;SDS011;2816;49.778;9.986;2023-05-10T09:50:43;4.90;;;1.60;;
5587;SDS011;2816;49.778;9.986;2023-05-10T09:53:09;3.37;;;2.00;;
5587;SDS011;2816;49.778;9.986;2023-05-10T09:55:42;4.07;;;1.53;;
5587;SDS011;2816;49.778;9.986;2023-05-10T09:58:11;2.10;;;1.77;;
5587;SDS011;2816;49.778;9.986;2023-05-10T10:00:39;3.57;;;1.63;;
5587;SDS011;2816;49.778;9.986;2023-05-10T10:03:13;4.10;;;2.17;;
5587;SDS011;2816;49.778;9.986;2023-05-10T10:05:40;3.43;;;2.00;;
5587;SDS011;2816;49.778;9.986;2023-05-10T10:08:08;3.83;;;1.50;;
5587;SDS011;2816;49.778;9.986;2023-05-10T10:10:36;5.70;;;1.90;;
5587;SDS011;2816;49.778;9.986;2023-05-10T10:13:03;3.13;;;1.90;;
5587;SDS011;2816;49.778;9.986;2023-05-10T10:15:30;1.90;;;1.77;;
5587;SDS011;2816;49.778;9.986;2023-05-10T10:17:59;2.37;;;1.60;;
5587;SDS011;2816;49.778;9.986;2023-05-10T10:20:27;6.17;;;1.60;;
5587;SDS011;2816;49.778;9.986;2023-05-10T10:22:55;2.40;;;1.70;;
5587;SDS011;2816;49.778;9.986;2023-05-10T10:25:22;5.30;;;1.70;;
5587;SDS011;2816;49.778;9.986;2023-05-10T10:27:56;3.43;;;1.53;;
5587;SDS011;2816;49.778;9.986;2023-05-10T10:30:35;1.70;;;1.60;;
5587;SDS011;2816;49.778;9.986;2023-05-10T10:33:21;1.73;;;1.50;;
5587;SDS011;2816;49.778;9.986;2023-05-10T10:36:06;3.97;;;1.80;;
5587;SDS011;2816;49.778;9.986;2023-05-10T10:38:37;3.30;;;1.43;;
5587;SDS011;2816;49.778;9.986;2023-05-10T10:41:27;2.60;;;1.70;;
5587;SDS011;2816;49.778;9.986;2023-05-10T10:47:00;2.10;;;1.70;;
5587;SDS011;2816;49.778;9.986;2023-05-10T10:49:34;1.40;;;1.30;;
5587;SDS011;2816;49.778;9.986;2023-05-10T10:52:15;1.67;;;1.40;;
5587;SDS011;2816;49.778;9.986;2023-05-10T10:54:51;1.70;;;1.47;;
5587;SDS011;2816;49.778;9.986;2023-05-10T10:57:19;1.77;;;1.67;;
5587;SDS011;2816;49.778;9.986;2023-05-10T10:59:47;5.30;;;2.03;;
5587;SDS011;2816;49.778;9.986;2023-05-10T11:02:34;1.53;;;1.23;;
5587;SDS011;2816;49.778;9.986;2023-05-10T11:05:22;1.53;;;1.40;;
5587;SDS011;2816;49.778;9.986;2023-05-10T11:08:13;2.60;;;1.37;;
5587;SDS011;2816;49.778;9.986;2023-05-10T11:10:51;3.37;;;2.07;;
5587;SDS011;2816;49.778;9.986;2023-05-10T11:13:29;3.03;;;1.80;;
5587;SDS011;2816;49.778;9.986;2023-05-10T11:15:57;4.47;;;1.70;;
5587;SDS011;2816;49.778;9.986;2023-05-10T11:18:26;2.90;;;1.50;;
5587;SDS011;2816;49.778;9.986;2023-05-10T11:20:57;2.47;;;1.30;;
5587;SDS011;2816;49.778;9.986;2023-05-10T11:23:30;6.43;;;1.33;;
5587;SDS011;2816;49.778;9.986;2023-05-10T11:25:59;1.43;;;1.33;;
5587;SDS011;2816;49.778;9.986;2023-05-10T11:28:26;3.80;;;1.67;;
5587;SDS011;2816;49.778;9.986;2023-05-10T11:30:54;1.33;;;1.20;;
5587;SDS011;2816;49.778;9.986;2023-05-10T11:33:21;2.13;;;1.30;;
5587;SDS011;2816;49.778;9.986;2023-05-10T11:35:48;1.50;;;1.40;;
5587;SDS011;2816;49.778;9.986;2023-05-10T11:38:15;3.03;;;1.63;;
5587;SDS011;2816;49.778;9.986;2023-05-10T11:40:43;3.30;;;1.50;;
5587;SDS011;2816;49.778;9.986;2023-05-10T11:43:10;2.40;;;1.40;;
5587;SDS011;2816;49.778;9.986;2023-05-10T11:45:37;3.27;;;1.43;;
5587;SDS011;2816;49.778;9.986;2023-05-10T11:48:06;2.23;;;1.50;;
5587;SDS011;2816;49.778;9.986;2023-05-10T11:50:33;9.67;;;1.23;;
5587;SDS011;2816;49.778;9.986;2023-05-10T11:53:00;2.93;;;1.40;;
5587;SDS011;2816;49.778;9.986;2023-05-10T11:55:27;1.30;;;1.20;;
5587;SDS011;2816;49.778;9.986;2023-05-10T11:57:59;1.10;;;1.00;;
5587;SDS011;2816;49.778;9.986;2023-05-10T12:00:27;2.30;;;1.40;;
5587;SDS011;2816;49.778;9.986;2023-05-10T12:02:55;1.67;;;1.10;;
5587;SDS011;2816;49.778;9.986;2023-05-10T12:05:22;2.03;;;1.10;;
5587;SDS011;2816;49.778;9.986;2023-05-10T12:07:49;1.30;;;1.20;;
5587;SDS011;2816;49.778;9.986;2023-05-10T12:10:17;3.77;;;1.40;;
5587;SDS011;2816;49.778;9.986;2023-05-10T12:12:52;2.80;;;1.30;;
5587;SDS011;2816;49.778;9.986;2023-05-10T12:15:21;6.93;;;1.40;;
5587;SDS011;2816;49.778;9.986;2023-05-10T12:17:49;2.20;;;1.20;;
5587;SDS011;2816;49.778;9.986;2023-05-10T12:20:17;1.63;;;1.20;;
5587;SDS011;2816;49.778;9.986;2023-05-10T12:22:46;4.23;;;1.20;;
5587;SDS011;2816;49.778;9.986;2023-05-10T12:25:16;2.30;;;1.30;;
5587;SDS011;2816;49.778;9.986;2023-05-10T12:27:53;1.00;;;1.00;;
5587;SDS011;2816;49.778;9.986;2023-05-10T12:30:23;1.23;;;1.00;;
5587;SDS011;2816;49.778;9.986;2023-05-10T12:32:51;2.27;;;1.20;;
5587;SDS011;2816;49.778;9.986;2023-05-10T12:35:18;3.23;;;1.40;;
5587;SDS011;2816;49.778;9.986;2023-05-10T12:37:47;1.63;;;1.10;;
5587;SDS011;2816;49.778;9.986;2023-05-10T12:40:14;3.67;;;1.30;;
5587;SDS011;2816;49.778;9.986;2023-05-10T12:42:41;3.17;;;1.43;;
5587;SDS011;2816;49.778;9.986;2023-05-10T12:45:10;2.60;;;1.20;;
5587;SDS011;2816;49.778;9.986;2023-05-10T12:47:38;1.40;;;1.30;;
5587;SDS011;2816;49.778;9.986;2023-05-10T12:50:05;6.70;;;1.33;;
5587;SDS011;2816;49.778;9.986;2023-05-10T12:52:33;3.23;;;1.20;;
5587;SDS011;2816;49.778;9.986;2023-05-10T12:55:00;3.90;;;1.30;;
5587;SDS011;2816;49.778;9.986;2023-05-10T12:57:28;3.23;;;1.20;;
5587;SDS011;2816;49.778;9.986;2023-05-10T12:59:55;6.43;;;1.40;;
5587;SDS011;2816;49.778;9.986;2023-05-10T13:02:22;6.67;;;1.37;;
5587;SDS011;2816;49.778;9.986;2023-05-10T13:04:52;3.23;;;1.30;;
5587;SDS011;2816;49.778;9.986;2023-05-10T13:07:19;3.43;;;1.40;;
5587;SDS011;2816;49.778;9.986;2023-05-10T13:09:46;2.30;;;1.83;;
5587;SDS011;2816;49.778;9.986;2023-05-10T13:12:13;2.30;;;1.40;;
5587;SDS011;2816;49.778;9.986;2023-05-10T13:14:40;16.30;;;1.90;;
5587;SDS011;2816;49.778;9.986;2023-05-10T13:17:07;7.40;;;1.97;;
5587;SDS011;2816;49.778;9.986;2023-05-10T13:19:34;1.77;;;1.67;;
5587;SDS011;2816;49.778;9.986;2023-05-10T13:22:02;4.50;;;2.00;;
5587;SDS011;2816;49.778;9.986;2023-05-10T13:24:29;2.77;;;1.73;;
5587;SDS011;2816;49.778;9.986;2023-05-10T13:26:56;3.30;;;2.00;;
5587;SDS011;2816;49.778;9.986;2023-05-10T13:29:23;2.73;;;2.13;;
5587;SDS011;2816;49.778;9.986;2023-05-10T13:31:52;4.23;;;1.70;;
5587;SDS011;2816;49.778;9.986;2023-05-10T13:34:19;3.60;;;1.77;;
5587;SDS011;2816;49.778;9.986;2023-05-10T13:36:46;3.20;;;1.90;;
5587;SDS011;2816;49.778;9.986;2023-05-10T13:39:15;3.70;;;1.50;;
5587;SDS011;2816;49.778;9.986;2023-05-10T13:41:42;3.13;;;2.10;;
5587;SDS011;2816;49.778;9.986;2023-05-10T13:44:11;2.90;;;1.80;;
5587;SDS011;2816;49.778;9.986;2023-05-10T13:46:39;2.07;;;1.87;;
5587;SDS011;2816;49.778;9.986;2023-05-10T13:49:05;2.07;;;1.70;;
5587;SDS011;2816;49.778;9.986;2023-05-10T13:51:33;5.27;;;2.30;;
5587;SDS011;2816;49.778;9.986;2023-05-10T13:54:01;7.03;;;1.90;;
5587;SDS011;2816;49.778;9.986;2023-05-10T13:56:29;1.80;;;1.70;;
5587;SDS011;2816;49.778;9.986;2023-05-10T13:58:56;8.17;;;5.60;;
5587;SDS011;2816;49.778;9.986;2023-05-10T14:01:23;4.77;;;1.70;;
5587;SDS011;2816;49.778;9.986;2023-05-10T14:03:50;2.60;;;2.40;;
5587;SDS011;2816;49.778;9.986;2023-05-10T14:06:18;4.17;;;2.70;;
5587;SDS011;2816;49.778;9.986;2023-05-10T14:08:44;2.20;;;1.90;;
5587;SDS011;2816;49.778;9.986;2023-05-10T14:11:12;3.50;;;2.10;;
5587;SDS011;2816;49.778;9.986;2023-05-10T14:13:40;6.60;;;2.53;;
5587;SDS011;2816;49.778;9.986;2023-05-10T14:16:07;4.00;;;2.63;;
5587;SDS011;2816;49.778;9.986;2023-05-10T14:18:34;6.57;;;4.07;;
5587;SDS011;2816;49.778;9.986;2023-05-10T14:21:01;3.80;;;2.47;;
5587;SDS011;2816;49.778;9.986;2023-05-10T14:23:29;3.70;;;2.13;;
5587;SDS011;2816;49.778;9.986;2023-05-10T14:25:56;2.93;;;2.63;;
5587;SDS011;2816;49.778;9.986;2023-05-10T14:28:23;4.43;;;2.43;;
5587;SDS011;2816;49.778;9.986;2023-05-10T14:30:51;3.57;;;2.53;;
5587;SDS011;2816;49.778;9.986;2023-05-10T14:33:18;3.10;;;2.73;;
5587;SDS011;2816;49.778;9.986;2023-05-10T14:35:45;4.33;;;2.60;;
5587;SDS011;2816;49.778;9.986;2023-05-10T14:38:13;4.80;;;2.93;;
5587;SDS011;2816;49.778;9.986;2023-05-10T14:40:40;7.00;;;2.73;;
5587;SDS011;2816;49.778;9.986;2023-05-10T14:43:07;2.83;;;2.57;;
5587;SDS011;2816;49.778;9.986;2023-05-10T14:45:35;3.80;;;2.47;;
5587;SDS011;2816;49.778;9.986;2023-05-10T14:48:03;4.20;;;2.57;;
5587;SDS011;2816;49.778;9.986;2023-05-10T14:50:30;3.20;;;2.37;;
5587;SDS011;2816;49.778;9.986;2023-05-10T14:52:57;3.37;;;1.93;;
5587;SDS011;2816;49.778;9.986;2023-05-10T14:55:25;3.73;;;2.60;;
5587;SDS011;2816;49.778;9.986;2023-05-10T14:57:51;3.10;;;2.67;;
5587;SDS011;2816;49.778;9.986;2023-05-10T15:00:19;2.70;;;2.30;;
5587;SDS011;2816;49.778;9.986;2023-05-10T15:02:47;5.37;;;2.50;;
5587;SDS011;2816;49.778;9.986;2023-05-10T15:05:15;4.33;;;2.77;;
5587;SDS011;2816;49.778;9.986;2023-05-10T15:07:42;5.10;;;3.47;;
5587;SDS011;2816;49.778;9.986;2023-05-10T15:10:09;3.50;;;2.60;;
5587;SDS011;2816;49.778;9.986;2023-05-10T15:12:37;2.63;;;2.37;;
5587;SDS011;2816;49.778;9.986;2023-05-10T15:15:04;4.90;;;2.67;;
5587;SDS011;2816;49.778;9.986;2023-05-10T15:17:32;7.30;;;2.47;;
5587;SDS011;2816;49.778;9.986;2023-05-10T15:19:59;9.30;;;3.33;;
5587;SDS011;2816;49.778;9.986;2023-05-10T15:22:29;5.37;;;2.70;;
5587;SDS011;2816;49.778;9.986;2023-05-10T15:24:57;4.30;;;3.03;;
5587;SDS011;2816;49.778;9.986;2023-05-10T15:27:24;5.80;;;3.30;;
5587;SDS011;2816;49.778;9.986;2023-05-10T15:29:51;3.47;;;3.17;;